Accomac, Pennsylvania
Current Conditions -  °F | °C
As of 4:56 PM on Saturday 25 Oct 2014 (Local Time) from KMDT Reporting Station
Broken Clouds Broken Clouds  
Wind Chill: 69°   Ceiling: 7000
Heat Index: 69°   Visibility: 10mi
Dew Point: 46°   Wind: 6mph
Humidity: 44%   Direction: 210°SSW
Pressure: 29.69"   Gusts: NA
Location:  40.0152°N, 76.5974°W
Report Text: KMDT 252056Z 21005KT 10SM BKN070 21/08 A2969 RMK AO2 SLP055 T02060078 56034
Loading
Personal Weather Stations






























Interactive Weather Map
Tropical Storm Tracking
New forecast layout! Learn more

10-Day Weather Forecast

Advertisements
Track Severe Weather on mobile